createdAt,value
2023-05-17T00:00:34.725Z,80.93
2023-05-17T00:01:50.936Z,80.89
2023-05-17T00:02:53.817Z,81.42
2023-05-17T00:03:56.938Z,81.39
2023-05-17T00:04:59.717Z,81.32
2023-05-17T00:06:02.536Z,81.18
2023-05-17T00:07:05.318Z,81.20
2023-05-17T00:08:08.113Z,81.63
2023-05-17T00:09:11.088Z,81.57
2023-05-17T00:10:13.886Z,81.31
2023-05-17T00:11:16.780Z,81.78
2023-05-17T00:12:19.530Z,81.36
2023-05-17T00:13:22.368Z,81.76
2023-05-17T00:14:25.222Z,82.04
2023-05-17T00:15:28.293Z,81.78
2023-05-17T00:16:31.202Z,81.59
2023-05-17T00:17:34.236Z,82.06
2023-05-17T00:18:37.204Z,81.71
2023-05-17T00:19:40.077Z,81.77
2023-05-17T00:20:42.925Z,82.06
2023-05-17T00:21:45.944Z,82.17
2023-05-17T00:22:48.853Z,82.45
2023-05-17T00:23:51.684Z,82.33
2023-05-17T00:24:54.512Z,82.43
2023-05-17T00:25:57.201Z,82.20
2023-05-17T00:26:59.914Z,82.13
2023-05-17T00:28:02.661Z,82.34
2023-05-17T00:29:05.531Z,82.14
2023-05-17T00:30:08.488Z,82.30
2023-05-17T00:31:12.805Z,82.53
2023-05-17T00:32:16.035Z,82.50
2023-05-17T00:33:18.850Z,82.50
2023-05-17T00:34:22.311Z,82.53
2023-05-17T00:35:25.596Z,82.60
2023-05-17T00:36:28.512Z,82.66
2023-05-17T00:37:31.251Z,82.61
2023-05-17T00:38:34.083Z,82.60
2023-05-17T00:39:37.627Z,82.75
2023-05-17T00:40:40.495Z,82.80
2023-05-17T00:41:43.494Z,82.99
2023-05-17T00:42:46.268Z,82.77
2023-05-17T00:43:49.223Z,83.01
2023-05-17T00:44:51.976Z,83.10
2023-05-17T00:45:54.832Z,82.96
2023-05-17T00:46:59.804Z,83.02
2023-05-17T00:48:02.901Z,83.36
2023-05-17T00:49:05.846Z,83.19
2023-05-17T00:50:08.842Z,83.19
2023-05-17T00:51:12.049Z,83.55
2023-05-17T00:52:14.883Z,83.52
2023-05-17T00:53:18.051Z,83.50
2023-05-17T00:54:21.452Z,83.56
2023-05-17T00:55:24.390Z,83.81
2023-05-17T00:56:27.923Z,83.53
2023-05-17T00:57:32.150Z,83.66
2023-05-17T00:58:37.492Z,83.38
2023-05-17T00:59:42.331Z,83.78
2023-05-17T01:00:46.011Z,84.06
2023-05-17T01:01:48.762Z,83.70
2023-05-17T01:02:51.774Z,83.98
2023-05-17T01:03:54.661Z,83.61
2023-05-17T01:04:57.574Z,83.88
2023-05-17T01:06:00.530Z,84.09
2023-05-17T01:07:03.485Z,84.08
2023-05-17T01:08:06.245Z,83.82
2023-05-17T01:09:09.405Z,83.87
2023-05-17T01:10:12.476Z,83.94
2023-05-17T01:11:24.183Z,83.95
2023-05-17T01:12:33.201Z,84.26
2023-05-17T01:13:42.345Z,84.32
2023-05-17T01:15:11.577Z,84.06
2023-05-17T01:16:22.842Z,84.04
2023-05-17T01:17:31.957Z,84.17
2023-05-17T01:18:46.816Z,84.41
2023-05-17T01:20:08.393Z,84.45
2023-05-17T01:21:31.651Z,84.53
2023-05-17T01:22:47.945Z,84.35
2023-05-17T01:24:11.514Z,84.49
2023-05-17T01:25:40.646Z,84.19
2023-05-17T01:26:44.278Z,84.47
2023-05-17T01:27:49.425Z,84.37
2023-05-17T01:28:53.618Z,84.53
2023-05-17T01:29:58.232Z,84.39
2023-05-17T01:32:53.733Z,84.27
2023-05-17T01:33:58.830Z,84.19
2023-05-17T01:35:04.700Z,84.48
2023-05-17T01:36:08.387Z,84.35
2023-05-17T01:37:11.419Z,84.45
2023-05-17T01:38:14.150Z,84.21
2023-05-17T01:39:16.873Z,84.29
2023-05-17T01:40:20.599Z,84.61
2023-05-17T01:41:29.561Z,84.48
2023-05-17T01:42:33.133Z,84.35
2023-05-17T01:43:41.727Z,84.40
2023-05-17T01:44:50.773Z,84.43
2023-05-17T01:46:01.893Z,84.48
2023-05-17T01:47:21.022Z,84.53
2023-05-17T01:48:28.536Z,84.55
2023-05-17T01:49:37.653Z,84.47
2023-05-17T01:50:41.783Z,84.76
2023-05-17T01:51:49.578Z,84.55
2023-05-17T01:53:10.713Z,84.56
2023-05-17T01:54:21.995Z,84.57
2023-05-17T01:55:27.279Z,84.48
2023-05-17T01:56:34.142Z,84.55
2023-05-17T01:57:37.459Z,84.90
2023-05-17T01:58:45.216Z,84.39
2023-05-17T01:59:49.559Z,84.73
2023-05-17T02:00:56.501Z,84.16
2023-05-17T02:02:06.385Z,84.81
2023-05-17T02:03:12.649Z,84.37
2023-05-17T02:04:15.602Z,84.55
2023-05-17T02:05:18.612Z,84.30
2023-05-17T02:06:21.459Z,84.29
2023-05-17T02:07:24.220Z,84.19
2023-05-17T02:08:27.011Z,84.71
2023-05-17T02:09:30.092Z,84.41
2023-05-17T02:10:32.912Z,84.30
2023-05-17T02:11:36.412Z,84.23
2023-05-17T02:12:39.941Z,84.57
2023-05-17T02:13:42.687Z,84.35
2023-05-17T02:14:45.656Z,84.50
2023-05-17T02:15:48.456Z,84.31
2023-05-17T02:16:51.285Z,84.48
2023-05-17T02:17:54.100Z,84.34
2023-05-17T02:18:56.968Z,84.56
2023-05-17T02:19:59.804Z,84.11
2023-05-17T02:21:04.077Z,84.49
2023-05-17T02:22:06.842Z,84.57
2023-05-17T02:23:09.622Z,84.43
2023-05-17T02:24:12.376Z,84.42
2023-05-17T02:25:15.240Z,84.47
2023-05-17T02:26:17.982Z,84.31
2023-05-17T02:27:20.782Z,84.87
2023-05-17T02:28:23.567Z,84.30
2023-05-17T02:29:26.325Z,84.65
2023-05-17T02:30:29.099Z,84.53
2023-05-17T02:31:32.685Z,84.62
2023-05-17T02:32:35.573Z,84.16
2023-05-17T02:33:38.557Z,84.61
2023-05-17T02:34:41.407Z,84.49
2023-05-17T02:35:44.181Z,84.62
2023-05-17T02:36:48.481Z,84.42
2023-05-17T02:37:52.061Z,84.37
2023-05-17T02:38:55.561Z,84.18
2023-05-17T02:39:58.371Z,84.34
2023-05-17T02:41:01.116Z,84.21
2023-05-17T02:42:03.948Z,84.57
2023-05-17T02:43:06.690Z,84.11
2023-05-17T02:44:12.383Z,84.36
2023-05-17T02:45:15.195Z,84.47
2023-05-17T02:46:18.045Z,84.12
2023-05-17T02:47:23.853Z,84.26
2023-05-17T02:48:26.696Z,84.29
2023-05-17T02:49:29.598Z,83.79
2023-05-17T02:50:32.336Z,84.06
2023-05-17T02:51:35.449Z,83.83
2023-05-17T02:52:40.805Z,83.84
2023-05-17T02:53:43.762Z,83.70
2023-05-17T02:54:47.837Z,83.84
2023-05-17T02:55:51.538Z,83.56
2023-05-17T02:56:54.299Z,83.57
2023-05-17T02:57:57.118Z,83.38
2023-05-17T02:59:01.383Z,83.54
2023-05-17T03:00:06.090Z,83.28
2023-05-17T03:01:09.617Z,83.36
2023-05-17T03:02:12.444Z,83.44
2023-05-17T03:03:15.452Z,83.30
2023-05-17T03:04:20.302Z,83.06
2023-05-17T03:05:23.463Z,82.92
2023-05-17T03:06:27.841Z,82.81
2023-05-17T03:07:30.827Z,82.78
2023-05-17T03:08:33.779Z,83.13
2023-05-17T03:09:37.608Z,83.01
2023-05-17T03:10:40.770Z,82.74
2023-05-17T03:11:44.450Z,82.73
2023-05-17T03:12:53.702Z,82.72
2023-05-17T03:13:58.536Z,82.69
2023-05-17T03:15:04.311Z,82.64
2023-05-17T03:16:08.072Z,82.39
2023-05-17T03:17:10.892Z,82.45
2023-05-17T03:18:14.759Z,82.40
2023-05-17T03:19:18.590Z,82.27
2023-05-17T03:20:21.867Z,82.21
2023-05-17T03:21:24.867Z,82.42
2023-05-17T03:22:28.230Z,82.60
2023-05-17T03:23:31.348Z,82.04
2023-05-17T03:24:35.988Z,82.51
2023-05-17T03:25:38.962Z,82.17
2023-05-17T03:26:41.833Z,81.96
2023-05-17T03:27:46.617Z,82.06
2023-05-17T03:28:51.273Z,82.03
2023-05-17T03:29:54.936Z,81.89
2023-05-17T03:30:59.494Z,82.11
2023-05-17T03:32:06.522Z,81.63
2023-05-17T03:33:09.625Z,81.66
2023-05-17T03:34:12.490Z,81.17
2023-05-17T03:35:15.870Z,81.70
2023-05-17T03:36:21.924Z,81.47
2023-05-17T03:37:24.924Z,81.31
2023-05-17T03:38:27.805Z,81.29
2023-05-17T03:39:31.327Z,80.90
2023-05-17T03:40:34.104Z,81.25
2023-05-17T03:41:37.249Z,81.00
2023-05-17T03:42:40.257Z,80.88
2023-05-17T03:43:43.183Z,80.97
2023-05-17T03:44:47.876Z,80.54
2023-05-17T03:45:50.785Z,80.77
2023-05-17T03:46:54.441Z,80.58
2023-05-17T03:47:58.799Z,80.52
2023-05-17T03:49:03.082Z,80.19
2023-05-17T03:50:07.803Z,80.26
2023-05-17T03:51:10.990Z,80.68
2023-05-17T03:52:14.034Z,80.53
2023-05-17T03:53:16.881Z,80.21
2023-05-17T03:54:19.631Z,80.11
2023-05-17T03:55:22.556Z,80.24
2023-05-17T03:56:28.290Z,80.19
2023-05-17T03:57:31.073Z,80.30
2023-05-17T03:58:33.899Z,80.23
2023-05-17T03:59:36.782Z,80.42
2023-05-17T04:00:41.172Z,80.41
2023-05-17T04:01:46.666Z,80.12
2023-05-17T04:02:51.041Z,80.12
2023-05-17T04:03:54.157Z,80.08
2023-05-17T04:04:57.391Z,80.19
2023-05-17T04:06:01.448Z,79.95
2023-05-17T04:07:04.216Z,80.19
2023-05-17T04:08:07.090Z,80.31
2023-05-17T04:09:11.125Z,80.15
2023-05-17T04:10:15.380Z,79.98
2023-05-17T04:11:23.616Z,79.70
2023-05-17T04:12:26.529Z,79.77
2023-05-17T04:13:29.574Z,79.75
2023-05-17T04:14:32.458Z,79.61
2023-05-17T04:15:35.755Z,79.48
2023-05-17T04:16:38.891Z,79.38
2023-05-17T04:17:41.905Z,79.30
2023-05-17T04:18:45.877Z,79.46
2023-05-17T04:19:49.054Z,79.15
2023-05-17T04:20:51.919Z,79.66
2023-05-17T04:21:54.965Z,79.49
2023-05-17T04:22:58.408Z,79.41
2023-05-17T04:24:02.424Z,79.35
2023-05-17T04:25:05.677Z,79.80
2023-05-17T04:26:09.101Z,79.85
2023-05-17T04:27:14.511Z,80.07
2023-05-17T04:28:18.205Z,79.92
2023-05-17T04:29:21.382Z,79.75
2023-05-17T04:30:24.992Z,79.98
2023-05-17T04:31:27.859Z,79.54
2023-05-17T04:32:30.718Z,79.68
2023-05-17T04:33:33.825Z,79.61
2023-05-17T04:34:36.723Z,79.55
2023-05-17T04:35:41.842Z,79.71
2023-05-17T04:36:44.787Z,79.61
2023-05-17T04:37:47.654Z,79.82
2023-05-17T04:38:58.027Z,79.52
2023-05-17T04:40:03.500Z,79.51
2023-05-17T04:41:07.319Z,79.56
2023-05-17T04:42:12.230Z,79.71
2023-05-17T04:43:18.509Z,79.65
2023-05-17T04:44:22.506Z,79.49
2023-05-17T04:45:25.560Z,79.34
2023-05-17T04:46:28.672Z,79.51
2023-05-17T04:47:31.587Z,79.34
2023-05-17T04:48:34.569Z,79.05
2023-05-17T04:49:37.606Z,79.13
2023-05-17T04:50:40.789Z,79.25
2023-05-17T04:51:43.644Z,78.74
2023-05-17T04:52:47.208Z,78.91
2023-05-17T04:53:49.982Z,78.83
2023-05-17T04:54:53.715Z,79.17
2023-05-17T04:55:59.229Z,78.66
2023-05-17T04:57:03.693Z,78.70
2023-05-17T04:58:32.411Z,79.00
2023-05-17T04:59:35.818Z,79.05
2023-05-17T05:00:38.711Z,78.63
2023-05-17T05:01:42.401Z,78.88
2023-05-17T05:02:45.146Z,78.99
2023-05-17T05:03:48.998Z,78.88
2023-05-17T05:04:52.219Z,79.00
2023-05-17T05:05:55.256Z,78.65
2023-05-17T05:06:58.260Z,78.90
2023-05-17T05:08:01.273Z,79.02
2023-05-17T05:09:04.490Z,78.68
2023-05-17T05:10:11.742Z,78.75
2023-05-17T05:11:14.965Z,78.97
2023-05-17T05:12:18.178Z,78.59
2023-05-17T05:13:21.940Z,78.88
2023-05-17T05:14:24.735Z,78.67
2023-05-17T05:15:27.712Z,78.48
2023-05-17T05:16:33.262Z,78.85
2023-05-17T05:17:36.735Z,79.04
2023-05-17T05:18:39.837Z,78.74
2023-05-17T05:19:43.535Z,78.77
2023-05-17T05:20:48.832Z,78.80
2023-05-17T05:21:52.044Z,78.64
2023-05-17T05:22:55.009Z,78.84
2023-05-17T05:23:57.810Z,78.70
2023-05-17T05:25:01.552Z,78.77
2023-05-17T05:26:04.986Z,78.51
2023-05-17T05:27:08.014Z,78.42
2023-05-17T05:28:12.242Z,78.35
2023-05-17T05:29:16.062Z,78.62
2023-05-17T05:30:22.423Z,78.57
2023-05-17T05:31:26.728Z,78.46
2023-05-17T05:32:30.010Z,78.45
2023-05-17T05:33:33.126Z,78.76
2023-05-17T05:34:36.075Z,78.38
2023-05-17T05:35:39.043Z,78.71
2023-05-17T05:36:43.091Z,78.48
2023-05-17T05:37:46.159Z,78.31
2023-05-17T05:38:49.271Z,78.47
2023-05-17T05:39:52.192Z,78.34
2023-05-17T05:40:55.591Z,77.98
2023-05-17T05:41:58.385Z,77.90
2023-05-17T05:43:01.219Z,77.71
2023-05-17T05:44:04.057Z,76.87
2023-05-17T05:45:07.171Z,76.90
2023-05-17T05:46:10.330Z,77.01
2023-05-17T05:47:13.114Z,77.07
2023-05-17T05:48:15.950Z,77.02
2023-05-17T05:49:19.424Z,77.05
2023-05-17T05:50:22.151Z,77.35
2023-05-17T05:51:25.532Z,77.27
2023-05-17T05:52:28.374Z,76.91
2023-05-17T05:53:31.527Z,76.98
2023-05-17T05:54:35.130Z,77.04
2023-05-17T05:55:42.289Z,76.98
2023-05-17T05:56:45.127Z,76.25
2023-05-17T05:57:48.824Z,75.72
2023-05-17T05:58:51.600Z,75.55
2023-05-17T05:59:54.664Z,74.80
2023-05-17T06:00:57.524Z,75.09
2023-05-17T06:02:00.524Z,75.44
2023-05-17T06:03:03.443Z,75.15
2023-05-17T06:04:06.337Z,74.83
2023-05-17T06:05:09.352Z,75.06
2023-05-17T06:06:12.412Z,74.42
2023-05-17T06:07:15.703Z,73.43
2023-05-17T06:08:18.470Z,74.04
2023-05-17T06:09:21.209Z,73.70
2023-05-17T06:10:24.526Z,73.28
2023-05-17T06:11:27.397Z,73.74
2023-05-17T06:12:30.154Z,73.19
2023-05-17T06:13:32.834Z,73.01
2023-05-17T06:14:37.516Z,73.00
2023-05-17T06:15:40.874Z,73.20
2023-05-17T06:16:43.616Z,72.63
2023-05-17T06:17:46.692Z,72.58
2023-05-17T06:18:51.230Z,72.45
2023-05-17T06:19:55.046Z,72.36
2023-05-17T06:20:57.917Z,72.41
2023-05-17T06:22:00.650Z,72.35
2023-05-17T06:23:05.207Z,72.06
2023-05-17T06:24:08.108Z,72.15
2023-05-17T06:25:13.990Z,70.82
2023-05-17T06:26:16.827Z,70.59
2023-05-17T06:27:19.611Z,70.89
2023-05-17T06:28:22.364Z,70.66
2023-05-17T06:29:25.206Z,68.26
2023-05-17T06:30:28.252Z,67.03
2023-05-17T06:31:31.157Z,66.29
2023-05-17T06:32:33.986Z,67.54
2023-05-17T06:33:36.837Z,68.31
2023-05-17T06:34:40.131Z,68.14
2023-05-17T06:35:55.532Z,67.99
2023-05-17T06:36:59.367Z,66.95
2023-05-17T06:38:02.289Z,67.43
2023-05-17T06:39:04.999Z,66.53
2023-05-17T06:40:16.111Z,67.25
2023-05-17T06:41:19.860Z,66.62
2023-05-17T06:42:22.607Z,66.41
2023-05-17T06:43:25.506Z,65.97
2023-05-17T06:44:28.541Z,65.73
2023-05-17T06:45:31.304Z,65.98
2023-05-17T06:46:34.118Z,66.17
2023-05-17T06:47:37.206Z,66.14
2023-05-17T06:48:40.271Z,66.07
2023-05-17T06:49:43.749Z,65.98
2023-05-17T06:50:46.611Z,65.96
2023-05-17T06:51:49.378Z,65.71
2023-05-17T06:52:52.114Z,66.21
2023-05-17T06:53:55.019Z,65.89
2023-05-17T06:54:57.919Z,65.77
2023-05-17T06:56:00.604Z,64.71
2023-05-17T06:57:03.456Z,64.63
2023-05-17T06:58:06.406Z,63.20
2023-05-17T06:59:09.276Z,62.73
2023-05-17T07:00:13.172Z,63.98
2023-05-17T07:01:17.085Z,61.86
2023-05-17T07:02:20.173Z,62.02
2023-05-17T07:03:23.087Z,63.25
2023-05-17T07:04:26.954Z,63.46
2023-05-17T07:05:31.106Z,63.38
2023-05-17T07:06:34.148Z,63.71
2023-05-17T07:07:37.015Z,63.83
2023-05-17T07:08:40.570Z,63.41
2023-05-17T07:09:43.360Z,62.55
2023-05-17T07:10:46.250Z,62.29
2023-05-17T07:11:48.980Z,62.77
2023-05-17T07:12:52.291Z,62.42
2023-05-17T07:13:55.097Z,61.89
2023-05-17T07:14:58.060Z,60.52
2023-05-17T07:16:00.841Z,60.21
2023-05-17T07:17:03.687Z,59.86
2023-05-17T07:18:06.668Z,60.28
2023-05-17T07:19:09.746Z,61.40
2023-05-17T07:20:13.105Z,61.11
2023-05-17T07:21:16.267Z,61.20
2023-05-17T07:22:19.432Z,60.80
2023-05-17T07:23:22.157Z,60.88
2023-05-17T07:24:24.976Z,60.34
2023-05-17T07:25:28.029Z,60.61
2023-05-17T07:26:31.832Z,61.06
2023-05-17T07:27:34.594Z,61.18
2023-05-17T07:28:37.637Z,61.15
2023-05-17T07:29:42.342Z,61.38
2023-05-17T07:30:45.145Z,60.50
2023-05-17T07:31:47.888Z,61.14
2023-05-17T07:32:50.771Z,61.39
2023-05-17T07:33:53.692Z,61.31
2023-05-17T07:34:56.599Z,61.63
2023-05-17T07:35:59.536Z,61.99
2023-05-17T07:37:02.964Z,61.44
2023-05-17T07:38:05.947Z,61.40
2023-05-17T07:39:09.252Z,61.36
2023-05-17T07:40:12.407Z,61.47
2023-05-17T07:41:17.092Z,61.54
2023-05-17T07:42:19.904Z,60.57
2023-05-17T07:43:22.688Z,61.21
2023-05-17T07:44:25.808Z,61.38
2023-05-17T07:45:29.001Z,61.20
2023-05-17T07:46:31.996Z,61.33
2023-05-17T07:47:34.969Z,61.37
2023-05-17T07:48:37.956Z,61.56
2023-05-17T07:49:40.760Z,61.00
2023-05-17T07:50:44.458Z,60.78
2023-05-17T07:51:47.916Z,60.33
2023-05-17T07:52:50.985Z,60.82
2023-05-17T07:53:53.718Z,60.94
2023-05-17T07:54:56.531Z,61.05
2023-05-17T07:55:59.257Z,61.28
2023-05-17T07:57:02.183Z,61.22
2023-05-17T07:58:05.143Z,60.99
2023-05-17T07:59:08.093Z,61.13
2023-05-17T08:00:12.756Z,61.31
2023-05-17T08:01:15.761Z,60.55
2023-05-17T08:02:18.608Z,60.88
2023-05-17T08:03:21.446Z,61.00
2023-05-17T08:04:24.460Z,61.06
2023-05-17T08:05:27.814Z,61.38
2023-05-17T08:06:30.792Z,61.24
2023-05-17T08:07:33.516Z,60.62
2023-05-17T08:08:36.434Z,60.42
2023-05-17T08:09:40.528Z,60.80
2023-05-17T08:10:43.322Z,60.85
2023-05-17T08:11:46.298Z,60.56
2023-05-17T08:12:49.059Z,60.37
2023-05-17T08:13:51.946Z,60.15
2023-05-17T08:14:54.730Z,59.62
2023-05-17T08:16:12.630Z,59.33
2023-05-17T08:17:16.183Z,58.95
2023-05-17T08:18:19.159Z,58.86
2023-05-17T08:19:22.436Z,59.14
2023-05-17T08:20:25.415Z,58.81
2023-05-17T08:21:28.272Z,58.27
2023-05-17T08:22:31.024Z,58.19
2023-05-17T08:23:33.893Z,57.81
2023-05-17T08:24:36.671Z,57.21
2023-05-17T08:25:39.523Z,57.90
2023-05-17T08:26:42.470Z,57.89
2023-05-17T08:27:45.426Z,58.20
2023-05-17T08:28:48.122Z,58.15
2023-05-17T08:29:51.861Z,57.25
2023-05-17T08:30:54.633Z,57.11
2023-05-17T08:32:00.693Z,56.86
2023-05-17T08:33:03.521Z,56.87
2023-05-17T08:34:06.531Z,56.65
2023-05-17T08:35:09.415Z,56.15
2023-05-17T08:36:12.494Z,55.75
2023-05-17T08:37:15.733Z,55.76
2023-05-17T08:38:20.654Z,56.52
2023-05-17T08:39:23.670Z,56.86
2023-05-17T08:40:27.551Z,57.16
2023-05-17T08:41:31.209Z,56.53
2023-05-17T08:42:34.964Z,57.03
2023-05-17T08:43:38.048Z,56.94
2023-05-17T08:44:41.114Z,57.07
2023-05-17T08:45:43.892Z,57.38
2023-05-17T08:46:53.364Z,57.60
2023-05-17T08:47:56.296Z,57.63
2023-05-17T08:49:02.185Z,57.70
2023-05-17T08:50:06.182Z,57.72
2023-05-17T08:51:12.190Z,57.02
2023-05-17T08:52:15.380Z,57.37
2023-05-17T08:53:18.612Z,57.40
2023-05-17T08:54:22.436Z,57.19
2023-05-17T08:55:26.400Z,57.41
2023-05-17T08:56:31.141Z,57.62
2023-05-17T08:57:36.543Z,57.65
2023-05-17T08:58:55.510Z,58.10
2023-05-17T09:00:19.197Z,58.07
2023-05-17T09:01:23.612Z,58.46
2023-05-17T09:02:30.023Z,58.21
2023-05-17T09:03:35.278Z,57.68
2023-05-17T09:04:38.370Z,57.79
2023-05-17T09:05:41.828Z,57.70
2023-05-17T09:06:44.821Z,57.84
2023-05-17T09:07:48.814Z,57.41
2023-05-17T09:08:55.246Z,57.05
2023-05-17T09:09:58.536Z,57.29
2023-05-17T09:11:01.355Z,57.16
2023-05-17T09:12:04.467Z,57.63
2023-05-17T09:13:07.542Z,57.76
2023-05-17T09:14:10.525Z,57.95
2023-05-17T09:15:20.939Z,57.57
2023-05-17T09:16:23.741Z,57.97
2023-05-17T09:17:27.339Z,57.81
2023-05-17T09:18:33.967Z,57.59
2023-05-17T09:19:43.193Z,56.40
2023-05-17T09:20:50.306Z,56.87
2023-05-17T09:21:56.088Z,56.88
2023-05-17T09:22:59.401Z,56.35
2023-05-17T09:24:07.232Z,56.65
2023-05-17T09:25:11.653Z,56.87
2023-05-17T09:26:14.464Z,56.71
2023-05-17T09:27:18.437Z,55.74
2023-05-17T09:28:21.329Z,55.30
2023-05-17T09:29:24.083Z,55.37
2023-05-17T09:30:27.825Z,55.21
2023-05-17T09:31:31.598Z,55.49
2023-05-17T09:32:34.575Z,55.22
2023-05-17T09:33:46.859Z,55.28
2023-05-17T09:34:51.104Z,55.24
2023-05-17T09:35:54.084Z,55.08
2023-05-17T09:36:56.826Z,55.14
2023-05-17T09:38:18.015Z,54.89
2023-05-17T09:39:20.752Z,54.90
2023-05-17T09:40:24.870Z,54.23
2023-05-17T09:41:28.380Z,54.38
2023-05-17T09:42:32.990Z,53.83
2023-05-17T09:43:35.765Z,53.17
2023-05-17T09:44:48.653Z,53.57
2023-05-17T09:45:58.077Z,54.23
2023-05-17T09:47:01.100Z,54.65
2023-05-17T09:48:13.766Z,54.55
2023-05-17T09:49:17.538Z,54.24
2023-05-17T09:50:21.712Z,52.67
2023-05-17T09:51:41.724Z,53.19
2023-05-17T09:52:44.554Z,53.02
2023-05-17T09:53:54.128Z,52.86
2023-05-17T09:54:58.295Z,51.53
2023-05-17T09:56:01.865Z,51.96
2023-05-17T09:57:07.821Z,52.48
2023-05-17T09:58:10.553Z,52.20
2023-05-17T09:59:14.700Z,52.14
2023-05-17T10:00:19.648Z,51.55
2023-05-17T10:01:25.634Z,51.77
2023-05-17T10:02:29.359Z,52.06
2023-05-17T10:03:33.373Z,51.43
2023-05-17T10:04:37.702Z,50.62
2023-05-17T10:05:43.776Z,51.27
2023-05-17T10:06:51.373Z,48.47
2023-05-17T10:07:56.390Z,49.87
2023-05-17T10:09:00.853Z,50.22
2023-05-17T10:10:04.043Z,50.15
2023-05-17T10:11:10.642Z,49.80
2023-05-17T10:12:17.335Z,49.85
2023-05-17T10:13:25.785Z,49.46
2023-05-17T10:14:31.928Z,48.71
2023-05-17T10:15:35.655Z,49.05
2023-05-17T10:16:38.935Z,49.05
2023-05-17T10:17:43.937Z,48.71
2023-05-17T10:18:49.391Z,48.76
2023-05-17T10:19:52.722Z,49.34
2023-05-17T10:20:56.309Z,48.58
2023-05-17T10:22:11.012Z,48.54
2023-05-17T10:23:22.522Z,48.29
2023-05-17T10:24:26.911Z,49.02
2023-05-17T10:25:30.602Z,47.80
2023-05-17T10:26:34.044Z,48.19
2023-05-17T10:27:36.861Z,48.76
2023-05-17T10:28:39.687Z,47.88
2023-05-17T10:29:43.484Z,47.88
2023-05-17T10:30:47.461Z,46.33
2023-05-17T10:31:53.565Z,46.06
2023-05-17T10:32:56.925Z,46.61
2023-05-17T10:34:03.455Z,45.09
2023-05-17T10:35:11.980Z,46.13
2023-05-17T10:36:17.341Z,45.32
2023-05-17T10:37:21.665Z,46.28
2023-05-17T10:38:32.053Z,45.99
2023-05-17T10:39:43.694Z,45.34
2023-05-17T10:40:47.302Z,45.53
2023-05-17T10:41:53.019Z,45.30
2023-05-17T10:42:56.576Z,43.63
2023-05-17T10:43:59.808Z,43.55
2023-05-17T10:45:02.614Z,43.32
2023-05-17T10:46:11.968Z,43.90
2023-05-17T10:47:15.405Z,44.24
2023-05-17T10:48:18.353Z,43.66
2023-05-17T10:49:24.681Z,43.31
2023-05-17T10:50:28.249Z,42.97
2023-05-17T10:51:35.588Z,43.44
2023-05-17T10:52:38.973Z,43.46
2023-05-17T10:54:01.633Z,44.19
2023-05-17T10:55:04.764Z,44.61
2023-05-17T10:56:07.543Z,44.76
2023-05-17T10:57:19.448Z,44.71
2023-05-17T10:58:26.166Z,44.75
2023-05-17T10:59:29.831Z,44.25
2023-05-17T11:00:38.439Z,44.64
2023-05-17T11:01:52.611Z,44.48
2023-05-17T11:03:11.422Z,44.57
2023-05-17T11:04:40.177Z,45.13
2023-05-17T11:05:44.904Z,45.05
2023-05-17T11:06:47.936Z,44.80
2023-05-17T11:07:50.846Z,43.34
2023-05-17T11:09:13.955Z,44.22
2023-05-17T11:10:17.930Z,43.84
2023-05-17T11:11:20.780Z,42.95
2023-05-17T11:12:28.493Z,43.72
2023-05-17T11:13:31.400Z,44.04
2023-05-17T11:14:46.394Z,43.45
2023-05-17T11:16:02.890Z,43.42
2023-05-17T11:17:12.477Z,42.40
2023-05-17T11:18:26.598Z,43.39
2023-05-17T11:19:33.691Z,42.78
2023-05-17T11:20:37.134Z,43.06
2023-05-17T11:21:47.163Z,42.10
2023-05-17T11:23:01.696Z,42.01
2023-05-17T11:24:05.431Z,42.04
2023-05-17T11:25:12.333Z,41.43
2023-05-17T11:26:22.241Z,41.62
2023-05-17T11:27:31.295Z,41.76
2023-05-17T11:28:35.685Z,42.10
2023-05-17T11:29:40.187Z,39.91
2023-05-17T11:30:44.016Z,41.13
2023-05-17T11:31:51.356Z,40.77
2023-05-17T11:32:55.102Z,40.62
2023-05-17T11:33:58.384Z,41.40
2023-05-17T11:35:01.356Z,42.02
2023-05-17T11:36:06.358Z,41.60
2023-05-17T11:37:12.166Z,40.59
2023-05-17T11:38:19.537Z,40.72
2023-05-17T11:39:23.332Z,40.42
2023-05-17T11:40:29.772Z,39.20
2023-05-17T11:41:36.852Z,40.18
2023-05-17T11:42:39.842Z,40.70
2023-05-17T11:43:45.289Z,40.95
2023-05-17T11:44:48.200Z,40.65
2023-05-17T11:45:54.820Z,40.13
2023-05-17T11:47:09.673Z,40.53
2023-05-17T11:48:13.654Z,39.76
2023-05-17T11:49:23.607Z,40.02
2023-05-17T11:50:37.632Z,39.69
2023-05-17T11:51:41.310Z,39.12
2023-05-17T11:52:44.118Z,39.09
2023-05-17T11:53:48.704Z,39.00
2023-05-17T11:54:52.230Z,37.68
2023-05-17T11:55:56.035Z,38.24
2023-05-17T11:57:03.730Z,38.66
2023-05-17T11:58:10.444Z,38.98
2023-05-17T11:59:18.685Z,38.91
2023-05-17T12:00:27.166Z,37.20
2023-05-17T12:01:42.101Z,37.76
2023-05-17T12:02:44.906Z,38.30
2023-05-17T12:03:55.376Z,38.24
2023-05-17T12:04:58.436Z,37.47
2023-05-17T12:06:03.112Z,38.15
2023-05-17T12:07:08.959Z,38.13
2023-05-17T12:08:11.934Z,36.93
2023-05-17T12:09:17.648Z,37.40
2023-05-17T12:10:21.826Z,37.52
2023-05-17T12:11:25.816Z,37.44
2023-05-17T12:12:28.603Z,37.99
2023-05-17T12:13:32.483Z,37.67
2023-05-17T12:14:35.366Z,37.28
2023-05-17T12:15:38.291Z,37.54
2023-05-17T12:16:43.018Z,36.76
2023-05-17T12:17:47.762Z,36.98
2023-05-17T12:18:52.248Z,37.20
2023-05-17T12:19:55.490Z,36.80
2023-05-17T12:20:59.134Z,35.89
2023-05-17T12:22:08.783Z,36.34
2023-05-17T12:23:11.515Z,36.07
2023-05-17T12:24:14.506Z,35.84
2023-05-17T12:25:23.491Z,36.20
2023-05-17T12:26:26.253Z,36.47
2023-05-17T12:27:29.200Z,35.92
2023-05-17T12:28:32.113Z,35.55
2023-05-17T12:29:34.964Z,36.07
2023-05-17T12:30:37.732Z,32.79
2023-05-17T12:31:42.365Z,33.22
2023-05-17T12:32:46.668Z,33.85
2023-05-17T12:33:50.785Z,33.60
2023-05-17T12:34:54.091Z,33.50
2023-05-17T12:35:57.133Z,33.68
2023-05-17T12:36:59.912Z,32.94
2023-05-17T12:38:02.739Z,32.78
2023-05-17T12:39:09.926Z,32.08
2023-05-17T12:40:13.151Z,31.32
2023-05-17T12:41:16.769Z,32.13
2023-05-17T12:42:19.520Z,31.26
2023-05-17T12:43:24.335Z,32.07
2023-05-17T12:44:27.191Z,32.37
2023-05-17T12:45:29.963Z,30.39
2023-05-17T12:46:32.881Z,31.22
2023-05-17T12:47:35.924Z,30.47
2023-05-17T12:48:41.078Z,30.13
2023-05-17T12:49:56.178Z,30.07
2023-05-17T12:51:05.348Z,29.58
2023-05-17T12:52:08.189Z,30.18
2023-05-17T12:53:11.099Z,30.19
2023-05-17T12:54:26.475Z,30.60
2023-05-17T12:55:35.991Z,31.24
2023-05-17T12:56:41.628Z,30.46
2023-05-17T12:57:54.506Z,30.33
2023-05-17T12:59:04.875Z,30.99
2023-05-17T13:00:08.085Z,30.58
2023-05-17T13:01:14.424Z,31.09
2023-05-17T13:02:18.896Z,30.21
2023-05-17T13:03:22.068Z,30.60
2023-05-17T13:04:31.976Z,30.80
2023-05-17T13:05:35.086Z,29.29
2023-05-17T13:06:45.282Z,27.16
2023-05-17T13:07:48.285Z,28.42
2023-05-17T13:09:00.957Z,28.85
2023-05-17T13:10:03.757Z,28.73
2023-05-17T13:11:07.217Z,29.45
2023-05-17T13:12:09.952Z,29.59
2023-05-17T13:13:18.707Z,29.38
2023-05-17T13:14:38.168Z,27.17
2023-05-17T13:15:41.038Z,28.67
2023-05-17T13:16:43.856Z,29.32
2023-05-17T13:17:50.279Z,29.29
2023-05-17T13:18:53.461Z,28.28
2023-05-17T13:19:57.945Z,27.58
2023-05-17T13:21:01.667Z,28.41
2023-05-17T13:22:04.985Z,28.54
2023-05-17T13:23:07.928Z,28.85
2023-05-17T13:24:11.119Z,28.63
2023-05-17T13:25:15.724Z,27.85
2023-05-17T13:26:18.983Z,28.26
2023-05-17T13:27:21.827Z,28.21
2023-05-17T13:28:25.620Z,28.08
2023-05-17T13:29:39.399Z,27.78
2023-05-17T13:30:49.892Z,28.14
2023-05-17T13:31:52.621Z,28.20
2023-05-17T13:32:56.455Z,28.01
2023-05-17T13:33:59.481Z,28.06
2023-05-17T13:35:02.501Z,27.67
2023-05-17T13:36:05.499Z,27.46
2023-05-17T13:37:11.574Z,27.42
2023-05-17T13:38:15.250Z,26.97
2023-05-17T13:39:18.115Z,26.60
2023-05-17T13:40:21.122Z,27.27
2023-05-17T13:41:23.984Z,27.39
2023-05-17T13:42:26.817Z,27.59
2023-05-17T13:43:29.575Z,27.76
2023-05-17T13:44:32.353Z,28.05
2023-05-17T13:45:35.544Z,27.87
2023-05-17T13:46:38.424Z,27.54
2023-05-17T13:47:41.512Z,27.12
2023-05-17T13:48:44.462Z,27.68
2023-05-17T13:49:47.334Z,26.90
2023-05-17T13:50:50.994Z,27.24
2023-05-17T13:51:53.804Z,27.31
2023-05-17T13:52:56.693Z,26.47
2023-05-17T13:53:59.466Z,26.64
2023-05-17T13:55:02.345Z,26.44